sensor_id;sensor_type;location;lat;lon;timestamp;P1;durP1;ratioP1;P2;durP2;ratioP2
3036;SDS011;1528;52.550;13.408;2023-07-08T00:00:55;7.40;;;6.80;;
3036;SDS011;1528;52.550;13.408;2023-07-08T00:03:41;7.07;;;6.47;;
3036;SDS011;1528;52.550;13.408;2023-07-08T00:06:27;6.97;;;6.47;;
3036;SDS011;1528;52.550;13.408;2023-07-08T00:09:14;7.20;;;6.67;;
3036;SDS011;1528;52.550;13.408;2023-07-08T00:11:59;8.10;;;7.33;;
3036;SDS011;1528;52.550;13.408;2023-07-08T00:14:45;6.93;;;6.43;;
3036;SDS011;1528;52.550;13.408;2023-07-08T00:17:31;7.40;;;6.80;;
3036;SDS011;1528;52.550;13.408;2023-07-08T00:20:17;7.27;;;6.77;;
3036;SDS011;1528;52.550;13.408;2023-07-08T00:23:07;6.90;;;6.40;;
3036;SDS011;1528;52.550;13.408;2023-07-08T00:25:55;7.07;;;6.57;;
3036;SDS011;1528;52.550;13.408;2023-07-08T00:28:40;7.00;;;6.50;;
3036;SDS011;1528;52.550;13.408;2023-07-08T00:31:26;7.17;;;6.70;;
3036;SDS011;1528;52.550;13.408;2023-07-08T00:34:15;8.40;;;6.87;;
3036;SDS011;1528;52.550;13.408;2023-07-08T00:37:00;6.50;;;6.10;;
3036;SDS011;1528;52.550;13.408;2023-07-08T00:39:47;7.83;;;7.10;;
3036;SDS011;1528;52.550;13.408;2023-07-08T00:42:34;7.23;;;6.73;;
3036;SDS011;1528;52.550;13.408;2023-07-08T00:45:35;6.57;;;6.07;;
3036;SDS011;1528;52.550;13.408;2023-07-08T00:48:25;6.90;;;6.30;;
3036;SDS011;1528;52.550;13.408;2023-07-08T00:51:15;7.67;;;7.03;;
3036;SDS011;1528;52.550;13.408;2023-07-08T00:54:03;6.73;;;6.20;;
3036;SDS011;1528;52.550;13.408;2023-07-08T00:56:50;6.70;;;6.30;;
3036;SDS011;1528;52.550;13.408;2023-07-08T00:59:41;6.23;;;5.73;;
3036;SDS011;1528;52.550;13.408;2023-07-08T01:02:31;6.93;;;6.33;;
3036;SDS011;1528;52.550;13.408;2023-07-08T01:12:42;7.03;;;6.53;;
3036;SDS011;1528;52.550;13.408;2023-07-08T01:15:33;6.13;;;5.63;;
3036;SDS011;1528;52.550;13.408;2023-07-08T01:18:22;7.13;;;6.43;;
3036;SDS011;1528;52.550;13.408;2023-07-08T01:24:15;6.83;;;6.27;;
3036;SDS011;1528;52.550;13.408;2023-07-08T01:27:01;6.97;;;6.33;;
3036;SDS011;1528;52.550;13.408;2023-07-08T01:29:49;7.80;;;7.20;;
3036;SDS011;1528;52.550;13.408;2023-07-08T01:32:35;7.17;;;6.63;;
3036;SDS011;1528;52.550;13.408;2023-07-08T01:35:23;6.20;;;5.80;;
3036;SDS011;1528;52.550;13.408;2023-07-08T01:38:10;5.73;;;5.27;;
3036;SDS011;1528;52.550;13.408;2023-07-08T01:40:59;6.20;;;5.70;;
3036;SDS011;1528;52.550;13.408;2023-07-08T01:43:44;5.93;;;5.50;;
3036;SDS011;1528;52.550;13.408;2023-07-08T01:46:30;6.13;;;5.63;;
3036;SDS011;1528;52.550;13.408;2023-07-08T01:49:16;6.67;;;6.00;;
3036;SDS011;1528;52.550;13.408;2023-07-08T01:52:01;6.40;;;5.87;;
3036;SDS011;1528;52.550;13.408;2023-07-08T01:54:53;6.33;;;5.83;;
3036;SDS011;1528;52.550;13.408;2023-07-08T01:57:41;5.70;;;5.30;;
3036;SDS011;1528;52.550;13.408;2023-07-08T02:00:26;6.57;;;6.03;;
3036;SDS011;1528;52.550;13.408;2023-07-08T02:03:12;6.70;;;6.30;;
3036;SDS011;1528;52.550;13.408;2023-07-08T02:05:58;6.33;;;5.83;;
3036;SDS011;1528;52.550;13.408;2023-07-08T02:08:43;6.67;;;6.27;;
3036;SDS011;1528;52.550;13.408;2023-07-08T02:11:29;5.90;;;5.50;;
3036;SDS011;1528;52.550;13.408;2023-07-08T02:14:16;6.40;;;5.80;;
3036;SDS011;1528;52.550;13.408;2023-07-08T02:17:02;6.10;;;5.70;;
3036;SDS011;1528;52.550;13.408;2023-07-08T02:19:49;6.80;;;6.20;;
3036;SDS011;1528;52.550;13.408;2023-07-08T02:22:35;6.13;;;5.73;;
3036;SDS011;1528;52.550;13.408;2023-07-08T02:25:21;6.47;;;6.07;;
3036;SDS011;1528;52.550;13.408;2023-07-08T02:28:06;6.00;;;5.60;;
3036;SDS011;1528;52.550;13.408;2023-07-08T02:30:54;5.83;;;5.43;;
3036;SDS011;1528;52.550;13.408;2023-07-08T02:33:40;6.30;;;5.80;;
3036;SDS011;1528;52.550;13.408;2023-07-08T02:36:25;6.70;;;6.00;;
3036;SDS011;1528;52.550;13.408;2023-07-08T02:39:11;6.20;;;5.70;;
3036;SDS011;1528;52.550;13.408;2023-07-08T02:41:56;6.47;;;5.93;;
3036;SDS011;1528;52.550;13.408;2023-07-08T02:44:42;6.30;;;5.90;;
3036;SDS011;1528;52.550;13.408;2023-07-08T02:47:29;7.33;;;6.70;;
3036;SDS011;1528;52.550;13.408;2023-07-08T02:50:14;7.77;;;7.07;;
3036;SDS011;1528;52.550;13.408;2023-07-08T02:53:00;5.90;;;5.50;;
3036;SDS011;1528;52.550;13.408;2023-07-08T02:55:46;6.70;;;6.20;;
3036;SDS011;1528;52.550;13.408;2023-07-08T02:58:32;6.17;;;5.77;;
3036;SDS011;1528;52.550;13.408;2023-07-08T03:01:18;5.73;;;5.33;;
3036;SDS011;1528;52.550;13.408;2023-07-08T03:04:05;6.83;;;6.20;;
3036;SDS011;1528;52.550;13.408;2023-07-08T03:06:52;9.30;;;6.27;;
3036;SDS011;1528;52.550;13.408;2023-07-08T03:09:38;5.90;;;5.47;;
3036;SDS011;1528;52.550;13.408;2023-07-08T03:12:23;6.57;;;6.17;;
3036;SDS011;1528;52.550;13.408;2023-07-08T03:15:09;6.47;;;6.00;;
3036;SDS011;1528;52.550;13.408;2023-07-08T03:17:55;6.00;;;5.50;;
3036;SDS011;1528;52.550;13.408;2023-07-08T03:20:42;6.00;;;5.60;;
3036;SDS011;1528;52.550;13.408;2023-07-08T03:23:28;7.30;;;6.70;;
3036;SDS011;1528;52.550;13.408;2023-07-08T03:26:14;7.50;;;6.80;;
3036;SDS011;1528;52.550;13.408;2023-07-08T03:29:02;6.73;;;6.33;;
3036;SDS011;1528;52.550;13.408;2023-07-08T03:31:47;8.30;;;7.60;;
3036;SDS011;1528;52.550;13.408;2023-07-08T03:34:32;7.30;;;6.80;;
3036;SDS011;1528;52.550;13.408;2023-07-08T03:37:19;8.27;;;7.60;;
3036;SDS011;1528;52.550;13.408;2023-07-08T03:40:07;6.67;;;6.27;;
3036;SDS011;1528;52.550;13.408;2023-07-08T03:42:54;6.80;;;6.20;;
3036;SDS011;1528;52.550;13.408;2023-07-08T03:45:40;6.80;;;6.30;;
3036;SDS011;1528;52.550;13.408;2023-07-08T03:48:25;7.07;;;6.53;;
3036;SDS011;1528;52.550;13.408;2023-07-08T03:51:13;7.37;;;6.77;;
3036;SDS011;1528;52.550;13.408;2023-07-08T03:54:06;7.00;;;6.30;;
3036;SDS011;1528;52.550;13.408;2023-07-08T03:56:55;6.87;;;6.47;;
3036;SDS011;1528;52.550;13.408;2023-07-08T03:59:41;6.40;;;5.87;;
3036;SDS011;1528;52.550;13.408;2023-07-08T04:02:26;7.20;;;6.70;;
3036;SDS011;1528;52.550;13.408;2023-07-08T04:05:12;7.37;;;6.73;;
3036;SDS011;1528;52.550;13.408;2023-07-08T04:07:59;6.93;;;6.40;;
3036;SDS011;1528;52.550;13.408;2023-07-08T04:10:46;7.00;;;6.40;;
3036;SDS011;1528;52.550;13.408;2023-07-08T04:13:32;6.33;;;5.93;;
3036;SDS011;1528;52.550;13.408;2023-07-08T04:16:18;6.77;;;6.30;;
3036;SDS011;1528;52.550;13.408;2023-07-08T04:19:07;6.80;;;6.30;;
3036;SDS011;1528;52.550;13.408;2023-07-08T04:21:57;7.40;;;6.90;;
3036;SDS011;1528;52.550;13.408;2023-07-08T04:24:43;7.00;;;6.50;;
3036;SDS011;1528;52.550;13.408;2023-07-08T04:27:30;6.40;;;6.00;;
3036;SDS011;1528;52.550;13.408;2023-07-08T04:30:20;6.83;;;6.33;;
3036;SDS011;1528;52.550;13.408;2023-07-08T04:33:07;6.80;;;6.30;;
3036;SDS011;1528;52.550;13.408;2023-07-08T04:35:53;7.27;;;6.67;;
3036;SDS011;1528;52.550;13.408;2023-07-08T04:38:39;7.87;;;7.20;;
3036;SDS011;1528;52.550;13.408;2023-07-08T04:41:25;6.73;;;6.13;;
3036;SDS011;1528;52.550;13.408;2023-07-08T04:44:12;7.00;;;6.50;;
3036;SDS011;1528;52.550;13.408;2023-07-08T04:46:58;6.10;;;5.60;;
3036;SDS011;1528;52.550;13.408;2023-07-08T04:49:44;6.77;;;6.27;;
3036;SDS011;1528;52.550;13.408;2023-07-08T04:52:31;6.27;;;5.87;;
3036;SDS011;1528;52.550;13.408;2023-07-08T04:55:16;6.70;;;6.10;;
3036;SDS011;1528;52.550;13.408;2023-07-08T04:58:02;6.43;;;6.00;;
3036;SDS011;1528;52.550;13.408;2023-07-08T05:00:49;6.43;;;5.97;;
3036;SDS011;1528;52.550;13.408;2023-07-08T05:03:35;6.40;;;5.90;;
3036;SDS011;1528;52.550;13.408;2023-07-08T05:06:20;6.03;;;5.60;;
3036;SDS011;1528;52.550;13.408;2023-07-08T05:09:06;5.93;;;5.43;;
3036;SDS011;1528;52.550;13.408;2023-07-08T05:11:52;5.60;;;5.20;;
3036;SDS011;1528;52.550;13.408;2023-07-08T05:14:37;5.87;;;5.47;;
3036;SDS011;1528;52.550;13.408;2023-07-08T05:17:26;6.77;;;6.27;;
3036;SDS011;1528;52.550;13.408;2023-07-08T05:20:13;5.90;;;5.37;;
3036;SDS011;1528;52.550;13.408;2023-07-08T05:22:59;5.67;;;5.23;;
3036;SDS011;1528;52.550;13.408;2023-07-08T05:25:45;5.87;;;5.37;;
3036;SDS011;1528;52.550;13.408;2023-07-08T05:28:30;6.20;;;5.80;;
3036;SDS011;1528;52.550;13.408;2023-07-08T05:31:17;9.17;;;5.90;;
3036;SDS011;1528;52.550;13.408;2023-07-08T05:34:03;6.00;;;5.60;;
3036;SDS011;1528;52.550;13.408;2023-07-08T05:36:49;5.80;;;5.30;;
3036;SDS011;1528;52.550;13.408;2023-07-08T05:39:34;6.30;;;5.83;;
3036;SDS011;1528;52.550;13.408;2023-07-08T05:42:20;6.57;;;5.60;;
3036;SDS011;1528;52.550;13.408;2023-07-08T05:45:06;6.40;;;5.87;;
3036;SDS011;1528;52.550;13.408;2023-07-08T05:47:54;6.07;;;5.67;;
3036;SDS011;1528;52.550;13.408;2023-07-08T05:50:41;6.33;;;5.73;;
3036;SDS011;1528;52.550;13.408;2023-07-08T05:53:26;5.93;;;5.37;;
3036;SDS011;1528;52.550;13.408;2023-07-08T05:56:12;6.23;;;5.83;;
3036;SDS011;1528;52.550;13.408;2023-07-08T05:58:57;6.50;;;5.90;;
3036;SDS011;1528;52.550;13.408;2023-07-08T06:01:43;6.53;;;6.13;;
3036;SDS011;1528;52.550;13.408;2023-07-08T06:04:28;6.33;;;5.93;;
3036;SDS011;1528;52.550;13.408;2023-07-08T06:07:16;6.03;;;5.60;;
3036;SDS011;1528;52.550;13.408;2023-07-08T06:10:01;5.70;;;5.30;;
3036;SDS011;1528;52.550;13.408;2023-07-08T06:12:47;6.80;;;6.30;;
3036;SDS011;1528;52.550;13.408;2023-07-08T06:15:33;5.97;;;5.57;;
3036;SDS011;1528;52.550;13.408;2023-07-08T06:18:19;6.23;;;5.83;;
3036;SDS011;1528;52.550;13.408;2023-07-08T06:21:04;5.67;;;5.27;;
3036;SDS011;1528;52.550;13.408;2023-07-08T06:23:52;5.87;;;5.37;;
3036;SDS011;1528;52.550;13.408;2023-07-08T06:26:37;5.43;;;5.03;;
3036;SDS011;1528;52.550;13.408;2023-07-08T06:29:23;6.70;;;6.20;;
3036;SDS011;1528;52.550;13.408;2023-07-08T06:32:09;5.53;;;5.17;;
3036;SDS011;1528;52.550;13.408;2023-07-08T06:34:55;6.30;;;5.80;;
3036;SDS011;1528;52.550;13.408;2023-07-08T06:37:41;6.73;;;6.23;;
3036;SDS011;1528;52.550;13.408;2023-07-08T06:40:28;6.93;;;5.80;;
3036;SDS011;1528;52.550;13.408;2023-07-08T06:43:14;7.03;;;6.00;;
3036;SDS011;1528;52.550;13.408;2023-07-08T06:45:59;6.60;;;6.00;;
3036;SDS011;1528;52.550;13.408;2023-07-08T06:48:45;6.90;;;6.30;;
3036;SDS011;1528;52.550;13.408;2023-07-08T06:51:30;6.20;;;5.70;;
3036;SDS011;1528;52.550;13.408;2023-07-08T07:01:09;5.80;;;5.50;;
3036;SDS011;1528;52.550;13.408;2023-07-08T07:03:55;6.60;;;6.10;;
3036;SDS011;1528;52.550;13.408;2023-07-08T07:06:40;6.80;;;6.20;;
3036;SDS011;1528;52.550;13.408;2023-07-08T07:09:26;6.57;;;6.17;;
3036;SDS011;1528;52.550;13.408;2023-07-08T07:12:12;6.33;;;5.70;;
3036;SDS011;1528;52.550;13.408;2023-07-08T07:14:59;7.10;;;6.60;;
3036;SDS011;1528;52.550;13.408;2023-07-08T07:17:45;7.10;;;6.70;;
3036;SDS011;1528;52.550;13.408;2023-07-08T07:20:31;6.57;;;6.03;;
3036;SDS011;1528;52.550;13.408;2023-07-08T07:23:16;6.87;;;6.23;;
3036;SDS011;1528;52.550;13.408;2023-07-08T07:26:02;7.50;;;6.90;;
3036;SDS011;1528;52.550;13.408;2023-07-08T07:28:48;7.10;;;6.53;;
3036;SDS011;1528;52.550;13.408;2023-07-08T07:31:35;6.00;;;5.60;;
3036;SDS011;1528;52.550;13.408;2023-07-08T07:34:23;8.33;;;6.70;;
3036;SDS011;1528;52.550;13.408;2023-07-08T07:37:10;6.63;;;6.20;;
3036;SDS011;1528;52.550;13.408;2023-07-08T07:39:57;6.97;;;6.47;;
3036;SDS011;1528;52.550;13.408;2023-07-08T07:42:43;6.67;;;6.20;;
3036;SDS011;1528;52.550;13.408;2023-07-08T07:45:30;7.37;;;6.30;;
3036;SDS011;1528;52.550;13.408;2023-07-08T07:48:17;6.43;;;6.03;;
3036;SDS011;1528;52.550;13.408;2023-07-08T07:51:03;6.83;;;6.43;;
3036;SDS011;1528;52.550;13.408;2023-07-08T07:53:49;6.80;;;6.27;;
3036;SDS011;1528;52.550;13.408;2023-07-08T07:56:34;7.87;;;6.87;;
3036;SDS011;1528;52.550;13.408;2023-07-08T07:59:20;6.47;;;5.97;;
3036;SDS011;1528;52.550;13.408;2023-07-08T08:02:07;6.50;;;6.10;;
3036;SDS011;1528;52.550;13.408;2023-07-08T08:04:53;7.77;;;6.57;;
3036;SDS011;1528;52.550;13.408;2023-07-08T08:07:39;6.83;;;6.30;;
3036;SDS011;1528;52.550;13.408;2023-07-08T08:10:25;8.13;;;7.50;;
3036;SDS011;1528;52.550;13.408;2023-07-08T08:13:11;7.17;;;6.53;;
3036;SDS011;1528;52.550;13.408;2023-07-08T08:15:56;7.60;;;6.97;;
3036;SDS011;1528;52.550;13.408;2023-07-08T08:18:42;6.97;;;6.50;;
3036;SDS011;1528;52.550;13.408;2023-07-08T08:21:29;6.30;;;5.83;;
3036;SDS011;1528;52.550;13.408;2023-07-08T08:24:17;7.10;;;6.50;;
3036;SDS011;1528;52.550;13.408;2023-07-08T08:27:03;6.30;;;5.70;;
3036;SDS011;1528;52.550;13.408;2023-07-08T08:29:50;7.07;;;6.43;;
3036;SDS011;1528;52.550;13.408;2023-07-08T08:32:35;7.97;;;6.60;;
3036;SDS011;1528;52.550;13.408;2023-07-08T08:35:21;6.60;;;6.20;;
3036;SDS011;1528;52.550;13.408;2023-07-08T08:38:08;11.37;;;10.50;;
3036;SDS011;1528;52.550;13.408;2023-07-08T08:40:54;7.10;;;6.40;;
3036;SDS011;1528;52.550;13.408;2023-07-08T08:43:40;8.63;;;7.83;;
3036;SDS011;1528;52.550;13.408;2023-07-08T08:46:30;7.80;;;7.10;;
3036;SDS011;1528;52.550;13.408;2023-07-08T08:49:23;7.43;;;6.27;;
3036;SDS011;1528;52.550;13.408;2023-07-08T08:52:11;6.30;;;5.80;;
3036;SDS011;1528;52.550;13.408;2023-07-08T08:54:59;6.60;;;6.20;;
3036;SDS011;1528;52.550;13.408;2023-07-08T08:57:47;5.83;;;5.33;;
3036;SDS011;1528;52.550;13.408;2023-07-08T09:00:42;6.83;;;6.43;;
3036;SDS011;1528;52.550;13.408;2023-07-08T09:03:34;7.00;;;6.60;;
3036;SDS011;1528;52.550;13.408;2023-07-08T09:06:25;5.73;;;5.37;;
3036;SDS011;1528;52.550;13.408;2023-07-08T09:09:12;11.97;;;6.80;;
3036;SDS011;1528;52.550;13.408;2023-07-08T09:12:05;6.73;;;6.27;;
3036;SDS011;1528;52.550;13.408;2023-07-08T09:14:54;5.53;;;5.13;;
3036;SDS011;1528;52.550;13.408;2023-07-08T09:17:40;6.30;;;5.97;;
3036;SDS011;1528;52.550;13.408;2023-07-08T09:20:26;6.07;;;5.43;;
3036;SDS011;1528;52.550;13.408;2023-07-08T09:23:15;6.63;;;6.17;;
3036;SDS011;1528;52.550;13.408;2023-07-08T09:26:07;4.60;;;4.30;;
3036;SDS011;1528;52.550;13.408;2023-07-08T09:28:59;5.50;;;5.20;;
3036;SDS011;1528;52.550;13.408;2023-07-08T09:31:45;6.40;;;5.97;;
3036;SDS011;1528;52.550;13.408;2023-07-08T09:34:37;6.77;;;6.10;;
3036;SDS011;1528;52.550;13.408;2023-07-08T09:37:27;5.77;;;5.37;;
3036;SDS011;1528;52.550;13.408;2023-07-08T09:40:15;4.60;;;4.30;;
3036;SDS011;1528;52.550;13.408;2023-07-08T09:43:02;5.50;;;5.10;;
3036;SDS011;1528;52.550;13.408;2023-07-08T09:46:00;5.43;;;5.03;;
3036;SDS011;1528;52.550;13.408;2023-07-08T09:48:46;5.63;;;4.93;;
3036;SDS011;1528;52.550;13.408;2023-07-08T09:51:32;5.10;;;4.70;;
3036;SDS011;1528;52.550;13.408;2023-07-08T09:54:19;5.17;;;4.87;;
3036;SDS011;1528;52.550;13.408;2023-07-08T09:57:09;5.77;;;5.37;;
3036;SDS011;1528;52.550;13.408;2023-07-08T10:00:03;5.70;;;5.10;;
3036;SDS011;1528;52.550;13.408;2023-07-08T10:02:57;5.53;;;5.03;;
3036;SDS011;1528;52.550;13.408;2023-07-08T10:05:46;5.30;;;5.00;;
3036;SDS011;1528;52.550;13.408;2023-07-08T10:08:34;5.23;;;5.00;;
3036;SDS011;1528;52.550;13.408;2023-07-08T10:11:27;6.47;;;5.87;;
3036;SDS011;1528;52.550;13.408;2023-07-08T10:14:17;5.67;;;5.37;;
3036;SDS011;1528;52.550;13.408;2023-07-08T10:17:09;6.30;;;5.80;;
3036;SDS011;1528;52.550;13.408;2023-07-08T10:20:00;5.47;;;5.07;;
3036;SDS011;1528;52.550;13.408;2023-07-08T10:22:50;5.90;;;5.60;;
3036;SDS011;1528;52.550;13.408;2023-07-08T10:25:46;5.90;;;5.40;;
3036;SDS011;1528;52.550;13.408;2023-07-08T10:28:40;5.30;;;4.90;;
3036;SDS011;1528;52.550;13.408;2023-07-08T10:31:34;4.73;;;4.43;;
3036;SDS011;1528;52.550;13.408;2023-07-08T10:34:33;6.37;;;5.70;;
3036;SDS011;1528;52.550;13.408;2023-07-08T10:37:30;5.30;;;5.00;;
3036;SDS011;1528;52.550;13.408;2023-07-08T10:40:27;5.90;;;5.40;;
3036;SDS011;1528;52.550;13.408;2023-07-08T10:43:29;5.70;;;5.40;;
3036;SDS011;1528;52.550;13.408;2023-07-08T10:46:31;5.30;;;4.90;;
3036;SDS011;1528;52.550;13.408;2023-07-08T10:49:28;4.73;;;4.43;;
3036;SDS011;1528;52.550;13.408;2023-07-08T10:52:35;5.30;;;5.00;;
3036;SDS011;1528;52.550;13.408;2023-07-08T10:55:32;6.70;;;5.97;;
3036;SDS011;1528;52.550;13.408;2023-07-08T11:01:37;5.77;;;5.37;;
3036;SDS011;1528;52.550;13.408;2023-07-08T11:04:40;5.20;;;4.90;;
3036;SDS011;1528;52.550;13.408;2023-07-08T11:07:34;5.40;;;5.10;;
3036;SDS011;1528;52.550;13.408;2023-07-08T11:10:27;6.10;;;5.70;;
3036;SDS011;1528;52.550;13.408;2023-07-08T11:13:19;5.63;;;5.27;;
3036;SDS011;1528;52.550;13.408;2023-07-08T11:16:10;5.43;;;5.13;;
3036;SDS011;1528;52.550;13.408;2023-07-08T11:19:04;6.57;;;6.17;;
3036;SDS011;1528;52.550;13.408;2023-07-08T11:21:56;6.80;;;6.43;;
3036;SDS011;1528;52.550;13.408;2023-07-08T11:24:47;5.53;;;5.23;;
3036;SDS011;1528;52.550;13.408;2023-07-08T11:27:35;5.53;;;5.27;;
3036;SDS011;1528;52.550;13.408;2023-07-08T11:30:26;6.07;;;5.77;;
3036;SDS011;1528;52.550;13.408;2023-07-08T11:33:15;5.80;;;5.50;;
3036;SDS011;1528;52.550;13.408;2023-07-08T11:36:04;6.40;;;6.00;;
3036;SDS011;1528;52.550;13.408;2023-07-08T11:38:52;6.20;;;5.80;;
3036;SDS011;1528;52.550;13.408;2023-07-08T11:41:40;5.77;;;5.40;;
3036;SDS011;1528;52.550;13.408;2023-07-08T11:44:25;5.93;;;5.53;;
3036;SDS011;1528;52.550;13.408;2023-07-08T11:47:12;5.37;;;5.03;;
3036;SDS011;1528;52.550;13.408;2023-07-08T11:50:03;6.80;;;6.30;;
3036;SDS011;1528;52.550;13.408;2023-07-08T11:52:58;6.17;;;5.87;;
3036;SDS011;1528;52.550;13.408;2023-07-08T11:55:47;6.67;;;6.27;;
3036;SDS011;1528;52.550;13.408;2023-07-08T11:58:51;6.63;;;6.23;;
3036;SDS011;1528;52.550;13.408;2023-07-08T12:01:47;8.47;;;8.03;;
3036;SDS011;1528;52.550;13.408;2023-07-08T12:04:51;7.70;;;7.10;;
3036;SDS011;1528;52.550;13.408;2023-07-08T12:07:40;6.30;;;5.90;;
3036;SDS011;1528;52.550;13.408;2023-07-08T12:10:27;7.57;;;7.17;;
3036;SDS011;1528;52.550;13.408;2023-07-08T12:13:18;6.83;;;6.43;;
3036;SDS011;1528;52.550;13.408;2023-07-08T12:16:09;8.37;;;7.97;;
3036;SDS011;1528;52.550;13.408;2023-07-08T12:18:57;9.17;;;8.77;;
3036;SDS011;1528;52.550;13.408;2023-07-08T12:21:44;10.40;;;10.10;;
3036;SDS011;1528;52.550;13.408;2023-07-08T12:24:30;9.43;;;9.13;;
3036;SDS011;1528;52.550;13.408;2023-07-08T12:27:16;9.20;;;8.90;;
3036;SDS011;1528;52.550;13.408;2023-07-08T12:30:02;8.50;;;8.27;;
3036;SDS011;1528;52.550;13.408;2023-07-08T12:32:50;11.30;;;10.50;;
3036;SDS011;1528;52.550;13.408;2023-07-08T12:35:36;11.00;;;10.60;;
3036;SDS011;1528;52.550;13.408;2023-07-08T12:38:23;12.48;;;12.07;;
3036;SDS011;1528;52.550;13.408;2023-07-08T12:41:13;11.38;;;10.98;;
3036;SDS011;1528;52.550;13.408;2023-07-08T12:44:02;12.95;;;12.45;;
3036;SDS011;1528;52.550;13.408;2023-07-08T12:46:53;12.80;;;12.30;;
3036;SDS011;1528;52.550;13.408;2023-07-08T12:49:41;12.55;;;12.15;;
3036;SDS011;1528;52.550;13.408;2023-07-08T12:52:27;16.00;;;15.50;;
3036;SDS011;1528;52.550;13.408;2023-07-08T12:55:12;19.90;;;19.30;;
3036;SDS011;1528;52.550;13.408;2023-07-08T12:57:59;14.85;;;14.35;;
3036;SDS011;1528;52.550;13.408;2023-07-08T13:00:45;13.18;;;12.77;;
3036;SDS011;1528;52.550;13.408;2023-07-08T13:03:33;14.93;;;14.52;;
3036;SDS011;1528;52.550;13.408;2023-07-08T13:06:24;14.80;;;14.40;;
3036;SDS011;1528;52.550;13.408;2023-07-08T13:09:23;17.92;;;17.48;;
3036;SDS011;1528;52.550;13.408;2023-07-08T13:12:16;16.63;;;16.13;;
3036;SDS011;1528;52.550;13.408;2023-07-08T13:15:08;16.08;;;15.65;;
3036;SDS011;1528;52.550;13.408;2023-07-08T13:18:02;13.95;;;13.55;;
3036;SDS011;1528;52.550;13.408;2023-07-08T13:20:48;19.33;;;18.83;;
3036;SDS011;1528;52.550;13.408;2023-07-08T13:23:38;15.43;;;15.00;;
3036;SDS011;1528;52.550;13.408;2023-07-08T13:26:25;18.10;;;17.60;;
3036;SDS011;1528;52.550;13.408;2023-07-08T13:29:13;17.05;;;16.55;;
3036;SDS011;1528;52.550;13.408;2023-07-08T13:32:03;15.43;;;14.80;;
3036;SDS011;1528;52.550;13.408;2023-07-08T13:34:50;21.23;;;20.73;;
3036;SDS011;1528;52.550;13.408;2023-07-08T13:37:36;18.25;;;17.75;;
3036;SDS011;1528;52.550;13.408;2023-07-08T13:40:23;22.08;;;21.30;;
3036;SDS011;1528;52.550;13.408;2023-07-08T13:43:12;19.45;;;18.95;;
3036;SDS011;1528;52.550;13.408;2023-07-08T13:45:58;17.98;;;17.40;;
3036;SDS011;1528;52.550;13.408;2023-07-08T13:48:44;17.25;;;16.85;;
3036;SDS011;1528;52.550;13.408;2023-07-08T13:51:31;15.77;;;15.38;;
3036;SDS011;1528;52.550;13.408;2023-07-08T13:54:19;16.35;;;15.85;;
3036;SDS011;1528;52.550;13.408;2023-07-08T13:57:10;15.98;;;15.57;;
3036;SDS011;1528;52.550;13.408;2023-07-08T13:59:56;16.25;;;15.85;;
3036;SDS011;1528;52.550;13.408;2023-07-08T14:02:43;17.17;;;16.73;;
3036;SDS011;1528;52.550;13.408;2023-07-08T14:05:29;18.73;;;18.23;;
3036;SDS011;1528;52.550;13.408;2023-07-08T14:08:15;17.23;;;16.73;;
3036;SDS011;1528;52.550;13.408;2023-07-08T14:11:02;18.60;;;18.00;;
3036;SDS011;1528;52.550;13.408;2023-07-08T14:13:49;17.40;;;16.90;;
3036;SDS011;1528;52.550;13.408;2023-07-08T14:16:35;16.58;;;16.08;;
3036;SDS011;1528;52.550;13.408;2023-07-08T14:19:25;18.25;;;17.83;;
3036;SDS011;1528;52.550;13.408;2023-07-08T14:22:20;22.10;;;21.60;;
3036;SDS011;1528;52.550;13.408;2023-07-08T14:25:08;20.55;;;19.95;;
3036;SDS011;1528;52.550;13.408;2023-07-08T14:27:55;15.13;;;14.73;;
3036;SDS011;1528;52.550;13.408;2023-07-08T14:30:43;20.95;;;20.45;;
3036;SDS011;1528;52.550;13.408;2023-07-08T14:33:31;14.30;;;13.77;;
3036;SDS011;1528;52.550;13.408;2023-07-08T14:36:16;11.90;;;11.50;;
3036;SDS011;1528;52.550;13.408;2023-07-08T14:39:08;14.02;;;13.60;;
3036;SDS011;1528;52.550;13.408;2023-07-08T14:41:56;11.38;;;11.07;;
3036;SDS011;1528;52.550;13.408;2023-07-08T14:44:42;13.30;;;13.00;;
3036;SDS011;1528;52.550;13.408;2023-07-08T14:47:30;13.68;;;13.38;;
3036;SDS011;1528;52.550;13.408;2023-07-08T14:50:16;10.52;;;10.00;;
3036;SDS011;1528;52.550;13.408;2023-07-08T14:53:02;8.73;;;8.43;;
3036;SDS011;1528;52.550;13.408;2023-07-08T14:55:49;6.30;;;6.10;;
3036;SDS011;1528;52.550;13.408;2023-07-08T14:58:37;6.30;;;6.10;;
3036;SDS011;1528;52.550;13.408;2023-07-08T15:01:25;4.80;;;4.60;;
3036;SDS011;1528;52.550;13.408;2023-07-08T15:04:15;5.00;;;4.70;;
3036;SDS011;1528;52.550;13.408;2023-07-08T15:07:04;5.47;;;5.20;;
3036;SDS011;1528;52.550;13.408;2023-07-08T15:09:53;5.10;;;4.80;;
3036;SDS011;1528;52.550;13.408;2023-07-08T15:12:38;4.60;;;4.30;;
3036;SDS011;1528;52.550;13.408;2023-07-08T15:15:26;5.40;;;5.10;;
3036;SDS011;1528;52.550;13.408;2023-07-08T15:18:14;4.50;;;4.20;;
3036;SDS011;1528;52.550;13.408;2023-07-08T15:21:02;4.83;;;4.30;;
3036;SDS011;1528;52.550;13.408;2023-07-08T15:23:48;4.63;;;4.23;;
3036;SDS011;1528;52.550;13.408;2023-07-08T15:26:33;3.70;;;3.50;;
3036;SDS011;1528;52.550;13.408;2023-07-08T15:29:19;10.10;;;4.17;;
3036;SDS011;1528;52.550;13.408;2023-07-08T15:32:08;4.83;;;4.63;;
3036;SDS011;1528;52.550;13.408;2023-07-08T15:34:57;4.37;;;4.17;;
3036;SDS011;1528;52.550;13.408;2023-07-08T15:37:44;4.50;;;4.20;;
3036;SDS011;1528;52.550;13.408;2023-07-08T15:40:32;4.73;;;4.43;;
3036;SDS011;1528;52.550;13.408;2023-07-08T15:43:19;4.27;;;3.97;;
3036;SDS011;1528;52.550;13.408;2023-07-08T15:46:04;4.60;;;3.97;;
3036;SDS011;1528;52.550;13.408;2023-07-08T15:48:51;4.60;;;4.20;;
3036;SDS011;1528;52.550;13.408;2023-07-08T15:51:37;4.63;;;4.30;;
3036;SDS011;1528;52.550;13.408;2023-07-08T15:54:24;4.60;;;4.30;;
3036;SDS011;1528;52.550;13.408;2023-07-08T15:57:10;4.60;;;4.30;;
3036;SDS011;1528;52.550;13.408;2023-07-08T15:59:57;3.90;;;3.70;;
3036;SDS011;1528;52.550;13.408;2023-07-08T16:02:42;3.97;;;3.77;;
3036;SDS011;1528;52.550;13.408;2023-07-08T16:05:28;4.10;;;3.80;;
3036;SDS011;1528;52.550;13.408;2023-07-08T16:08:15;4.57;;;4.17;;
3036;SDS011;1528;52.550;13.408;2023-07-08T16:11:02;4.63;;;4.33;;
3036;SDS011;1528;52.550;13.408;2023-07-08T16:13:48;4.70;;;4.40;;
3036;SDS011;1528;52.550;13.408;2023-07-08T16:16:34;4.70;;;4.00;;
3036;SDS011;1528;52.550;13.408;2023-07-08T16:19:20;4.43;;;4.13;;
3036;SDS011;1528;52.550;13.408;2023-07-08T16:22:05;4.37;;;4.03;;
3036;SDS011;1528;52.550;13.408;2023-07-08T16:24:51;5.10;;;4.80;;
3036;SDS011;1528;52.550;13.408;2023-07-08T16:27:38;5.03;;;4.63;;
3036;SDS011;1528;52.550;13.408;2023-07-08T16:30:25;4.73;;;4.33;;
3036;SDS011;1528;52.550;13.408;2023-07-08T16:33:11;4.60;;;4.30;;
3036;SDS011;1528;52.550;13.408;2023-07-08T16:35:56;4.97;;;4.57;;
3036;SDS011;1528;52.550;13.408;2023-07-08T16:38:42;5.10;;;4.70;;
3036;SDS011;1528;52.550;13.408;2023-07-08T16:41:28;5.60;;;5.07;;
3036;SDS011;1528;52.550;13.408;2023-07-08T16:44:20;4.10;;;3.90;;
3036;SDS011;1528;52.550;13.408;2023-07-08T16:47:06;5.20;;;4.80;;
3036;SDS011;1528;52.550;13.408;2023-07-08T16:49:52;4.70;;;4.30;;
3036;SDS011;1528;52.550;13.408;2023-07-08T16:52:38;4.50;;;4.20;;
3036;SDS011;1528;52.550;13.408;2023-07-08T16:55:24;4.13;;;3.83;;
3036;SDS011;1528;52.550;13.408;2023-07-08T16:58:09;4.63;;;4.43;;
3036;SDS011;1528;52.550;13.408;2023-07-08T17:00:57;4.60;;;4.30;;
3036;SDS011;1528;52.550;13.408;2023-07-08T17:03:42;4.40;;;4.00;;
3036;SDS011;1528;52.550;13.408;2023-07-08T17:06:28;4.20;;;3.90;;
3036;SDS011;1528;52.550;13.408;2023-07-08T17:09:13;4.43;;;4.20;;
3036;SDS011;1528;52.550;13.408;2023-07-08T17:11:59;5.70;;;5.30;;
3036;SDS011;1528;52.550;13.408;2023-07-08T17:14:45;4.63;;;4.30;;
3036;SDS011;1528;52.550;13.408;2023-07-08T17:17:32;4.50;;;4.20;;
3036;SDS011;1528;52.550;13.408;2023-07-08T17:20:18;4.43;;;4.03;;
3036;SDS011;1528;52.550;13.408;2023-07-08T17:23:08;4.40;;;4.20;;